EW9845 Weather Reports


Display with metric or nautical units.
time (UTC)temp
F
wind
direction
speed
MPH
gust
MPH
rain 1hr
in
rain 24hr
in
rain mn
in
humidity
%
barometer
mb
20260906224556 95 227 0.0 0.0 0.00 0.00 0.00 43 1006.7
20260906223056 97 166 0.0 3.0 0.00 0.00 0.00 40 1006.8
20260906221554 96 198 0.0 4.0 0.00 0.00 0.00 41 1007.0
20260906220052 96 228 0.0 0.0 0.00 0.00 0.00 42 1007.0
20260906214554 95 217 0.0 1.0 0.00 0.00 0.00 42 1007.0
20260906213052 98 159 0.0 0.0 0.00 0.00 0.00 40 1006.9
20260906211548 96 185 0.0 1.0 0.00 0.00 0.00 42 1007.4
20260906210058 96 147 0.0 0.0 0.00 0.00 0.00 41 1007.6
20260906204551 97 267 0.0 2.0 0.00 0.00 0.00 40 1007.8
20260906203043 97 182 0.0 0.0 0.00 0.00 0.00 40 1008.1
20260906201556 96 218 0.0 0.0 0.00 0.00 0.00 41 1008.1
20260906200042 96 94 0.0 1.0 0.00 0.00 0.00 41 1008.3
20260906194537 96 183 0.0 0.0 0.00 0.00 0.00 42 1008.4
20260906193036 95 192 0.0 1.0 0.00 0.00 0.00 42 1008.6
20260906191534 94 163 0.0 0.0 0.00 0.00 0.00 44 1008.9
20260906190039 95 245 0.0 0.0 0.00 0.00 0.00 43 1009.0
20260906184536 94 107 0.0 0.0 0.00 0.00 0.00 43 1009.2
20260906183037 94 193 0.0 3.0 0.00 0.00 0.00 43 1009.5
20260906181534 93 98 0.0 1.0 0.00 0.00 0.00 43 1009.8
20260906180025 93 191 0.0 2.0 0.00 0.00 0.00 42 1010.0
20260906174523 93 209 0.0 1.0 0.00 0.00 0.00 42 1010.3
20260906173021 92 177 0.0 1.0 0.00 0.00 0.00 42 1010.4
20260906171520 92 207 0.0 1.0 0.00 0.00 0.00 45 1010.5
20260906170016 91 200 0.0 1.0 0.00 0.00 0.00 49 1010.7
20260906164514 91 181 0.0 1.0 0.00 0.00 0.00 51 1010.9
20260906163013 90 261 0.0 2.0 0.00 0.00 0.00 53 1010.9
20260906161508 89 183 0.0 0.0 0.00 0.00 0.00 55 1010.9
20260906160006 87 195 0.0 0.0 0.00 0.00 0.00 57 1010.9
20260906154504 88 194 0.0 0.0 0.00 0.00 0.00 55 1010.7
20260906153001 88 5 0.0 0.0 0.00 0.00 0.00 58 1010.5
20260906151601 86 5 0.0 0.0 0.00 0.00 0.00 62 1010.4
20260906150053 84 5 0.0 0.0 0.00 0.00 0.00 65 1010.4
20260906144553 83 5 0.0 0.0 0.00 0.00 0.00 65 1010.2
20260906143054 83 5 0.0 0.0 0.00 0.00 0.00 66 1010.3
20260906141551 82 5 0.0 0.0 0.00 0.00 0.00 67 1010.4
20260906140051 81 5 0.0 0.0 0.00 0.00 0.00 70 1010.2
20260906134549 80 5 0.0 0.0 0.00 0.00 0.00 76 1010.2
20260906133105 78 95 0.0 0.0 0.00 0.00 0.00 78 1010.2
20260906131552 75 95 0.0 0.0 0.00 0.00 0.00 83 1010.1
20260906130055 72 95 0.0 0.0 0.00 0.00 0.00 87 1009.9
20260906124546 71 95 0.0 0.0 0.00 0.00 0.00 88 1009.7
20260906123045 70 94 0.0 0.0 0.00 0.00 0.00 87 1009.6
20260906121541 71 95 0.0 0.0 0.00 0.00 0.00 87 1009.3
20260906120046 71 97 0.0 0.0 0.00 0.00 0.00 87 1009.2
20260906114540 71 97 0.0 0.0 0.00 0.00 0.00 86 1009.0
20260906113042 71 97 0.0 0.0 0.00 0.00 0.00 85 1009.0
20260906111550 71 97 0.0 0.0 0.00 0.00 0.00 85 1008.8
20260906110039 72 97 0.0 0.0 0.00 0.00 0.00 84 1008.5
20260906104535 72 97 0.0 0.0 0.00 0.00 0.00 84 1008.5
20260906103033 72 97 0.0 0.0 0.00 0.00 0.00 84 1008.5
20260906101531 73 97 0.0 0.0 0.00 0.00 0.00 83 1008.6
20260906100034 73 97 0.0 0.0 0.00 0.00 0.00 83 1008.4
20260906094529 73 97 0.0 0.0 0.00 0.00 0.00 83 1008.6
20260906093043 73 97 0.0 0.0 0.00 0.00 0.00 82 1008.4
20260906091529 73 97 0.0 0.0 0.00 0.00 0.00 82 1008.3
20260906090028 74 97 0.0 0.0 0.00 0.00 0.00 81 1008.2
20260906084526 74 97 0.0 0.0 0.00 0.00 0.00 80 1008.2
20260906083033 74 97 0.0 0.0 0.00 0.00 0.00 80 1008.3
20260906081519 75 97 0.0 0.0 0.00 0.00 0.00 79 1008.3
20260906080015 75 97 0.0 0.0 0.00 0.00 0.00 78 1008.5
20260906074531 76 97 0.0 0.0 0.00 0.00 0.00 77 1008.6
20260906073011 77 97 0.0 0.0 0.00 0.00 0.00 75 1008.7
20260906071507 77 97 0.0 0.0 0.00 0.00 0.00 74 1008.9
20260906070006 78 97 0.0 0.0 0.00 0.00 0.00 72 1008.7
20260906064601 79 97 0.0 0.0 0.00 0.00 0.00 70 1008.8
20260906063058 80 97 0.0 0.0 0.00 0.00 0.00 69 1009.0
20260906061603 81 97 0.0 0.0 0.00 0.00 0.00 67 1009.0
20260906060052 82 97 0.0 0.0 0.00 0.00 0.00 65 1009.0
20260906054551 82 97 0.0 0.0 0.00 0.00 0.00 64 1009.0
20260906053102 83 140 0.0 0.0 0.00 0.00 0.00 63 1009.1
20260906051544 83 86 0.0 0.0 0.00 0.00 0.00 62 1009.4
20260906050043 84 86 0.0 0.0 0.00 0.00 0.00 61 1009.4
20260906044540 84 87 0.0 0.0 0.00 0.00 0.00 60 1009.1
20260906043039 85 94 0.0 0.0 0.00 0.00 0.00 60 1009.2
20260906041550 85 95 0.0 0.0 0.00 0.00 0.00 59 1009.2
20260906040038 86 111 0.0 0.0 0.00 0.00 0.00 58 1009.1
20260906034543 86 105 0.0 0.0 0.00 0.00 0.00 57 1009.1
20260906033045 85 81 0.0 0.0 0.00 0.00 0.00 57 1009.1
20260906031540 85 84 0.0 4.0 0.00 0.00 0.00 56 1008.7
20260906030045 85 86 0.0 0.0 0.00 0.00 0.00 53 1008.6
20260906024536 84 87 0.0 0.0 0.00 0.00 0.00 53 1008.1
20260906023035 84 87 0.0 0.0 0.00 0.00 0.00 54 1007.9
20260906021535 85 87 0.0 0.0 0.00 0.00 0.00 53 1007.7
20260906020035 86 87 0.0 0.0 0.00 0.00 0.00 51 1007.4
20260906014544 89 87 0.0 0.0 0.00 0.00 0.00 48 1007.3
20260906013034 90 87 0.0 0.0 0.00 0.00 0.00 45 1007.2
20260906011543 91 87 0.0 0.0 0.00 0.00 0.00 43 1007.0
20260906010056 92 87 0.0 0.0 0.00 0.00 0.00 42 1006.9
20260906004532 93 88 0.0 0.0 0.00 0.00 0.00 40 1006.9
20260906003032 94 112 0.0 1.0 0.00 0.00 0.00 38 1006.7
20260906001553 95 28 0.0 0.0 0.00 0.00 0.00 37 1006.7
20260906000031 96 95 0.0 2.0 0.00 0.00 0.00 36 1006.6
20260905234531 97 92 0.0 0.0 0.00 0.00 0.00 35 1006.6
20260905233029 97 80 0.0 1.0 0.00 0.00 0.00 34 1006.5
20260905231539 98 119 0.0 3.0 0.00 0.00 0.00 34 1006.5